Time;durP1;ratioP1;P1;durP2;ratioP2;P2;SDS_P1;SDS_P2;PMS_P1;PMS_P2;Temp;Humidity;BMP_temperature;BMP_pressure;BME280_temperature;BME280_humidity;BME280_pressure;Samples;Min_cycle;Max_cycle;Signal;HPM_P1;HPM_P2
2021/01/20 00:01:12;;;;;;;44.70;20.90;;;;;;;-3.17;74.28;98489.47;119794;1151;104464;-72
2021/01/20 00:03:45;;;;;;;41.30;19.97;;;;;;;-3.16;74.76;98491.18;119803;1151;104462;-73
2021/01/20 00:06:12;;;;;;;43.65;21.05;;;;;;;-3.17;74.75;98479.91;119874;1151;104377;-70
2021/01/20 00:08:39;;;;;;;42.80;20.50;;;;;;;-3.14;74.97;98481.59;119764;1151;104486;-72
2021/01/20 00:11:10;;;;;;;40.55;20.25;;;;;;;-3.13;75.44;98491.10;119770;1151;104374;-72
2021/01/20 00:13:37;;;;;;;41.77;19.57;;;;;;;-3.09;74.53;98473.65;119882;1151;104473;-72
2021/01/20 00:16:04;;;;;;;35.63;16.17;;;;;;;-3.08;75.53;98477.95;119719;1151;104458;-71
2021/01/20 00:18:31;;;;;;;46.23;22.83;;;;;;;-3.07;74.58;98477.06;119815;1151;104890;-71
2021/01/20 00:21:00;;;;;;;43.43;21.97;;;;;;;-3.07;75.23;98477.94;119724;1151;104545;-74
2021/01/20 00:23:26;;;;;;;38.83;19.85;;;;;;;-3.05;75.19;98468.31;119717;1151;104476;-73
2021/01/20 00:25:54;;;;;;;42.97;20.33;;;;;;;-3.05;74.87;98470.07;119800;1151;104446;-71
2021/01/20 00:28:22;;;;;;;40.60;17.93;;;;;;;-3.05;75.52;98459.66;119998;1151;104884;-70
2021/01/20 00:30:50;;;;;;;41.90;20.43;;;;;;;-3.05;75.46;98465.70;119854;1151;104452;-71
2021/01/20 00:33:18;;;;;;;41.97;18.73;;;;;;;-3.04;74.89;98472.62;120669;1151;104605;-70
2021/01/20 00:35:48;;;;;;;44.60;20.77;;;;;;;-3.02;75.55;98467.39;119737;1151;104484;-72
2021/01/20 00:38:15;;;;;;;40.13;20.80;;;;;;;-3.00;75.02;98468.20;119762;1151;104375;-72
2021/01/20 00:40:42;;;;;;;41.85;19.60;;;;;;;-2.99;75.70;98467.31;119760;1151;104423;-72
2021/01/20 00:43:09;;;;;;;38.77;18.53;;;;;;;-2.96;75.47;98466.36;119774;1151;104455;-73
2021/01/20 00:45:36;;;;;;;43.48;22.40;;;;;;;-2.96;75.62;98467.23;119638;1151;104342;-73
2021/01/20 00:48:09;;;;;;;43.50;21.37;;;;;;;-2.95;74.60;98461.13;119582;1151;104483;-73
2021/01/20 00:50:37;;;;;;;41.97;20.80;;;;;;;-2.95;75.20;98462.86;120058;1151;104463;-73
2021/01/20 00:53:04;;;;;;;38.57;17.90;;;;;;;-2.93;75.58;98459.34;119746;1151;104346;-73
2021/01/20 00:55:31;;;;;;;40.73;19.52;;;;;;;-2.93;75.25;98464.55;119867;1151;104468;-72
2021/01/20 00:57:59;;;;;;;42.97;22.00;;;;;;;-2.91;75.06;98465.36;120751;1151;104496;-73
2021/01/20 01:00:26;;;;;;;37.55;18.60;;;;;;;-2.89;74.84;98458.36;120305;1151;104844;-72
2021/01/20 01:02:53;;;;;;;40.77;19.67;;;;;;;-2.85;75.33;98459.11;119766;1150;104911;-71
2021/01/20 01:05:20;;;;;;;44.30;22.07;;;;;;;-2.81;74.79;98467.67;119771;1149;104352;-70
2021/01/20 01:07:47;;;;;;;39.65;19.65;;;;;;;-2.78;75.82;98464.99;119800;1151;104417;-72
2021/01/20 01:10:14;;;;;;;39.83;20.93;;;;;;;-2.76;75.13;98455.39;119815;1151;104793;-72
2021/01/20 01:12:41;;;;;;;39.70;20.80;;;;;;;-2.74;75.39;98453.59;119957;1149;104468;-71
2021/01/20 01:15:09;;;;;;;40.80;20.23;;;;;;;-2.72;75.06;98452.67;119863;1151;104946;-72
2021/01/20 01:17:36;;;;;;;38.13;18.33;;;;;;;-2.68;75.45;98457.80;119811;1151;104364;-72
2021/01/20 01:20:03;;;;;;;40.77;20.43;;;;;;;-2.68;75.03;98460.40;119834;1151;104553;-72
2021/01/20 01:22:33;;;;;;;41.37;20.73;;;;;;;-2.67;75.70;98459.50;119913;1150;104490;-70
2021/01/20 01:25:00;;;;;;;38.80;18.80;;;;;;;-2.65;75.98;98458.55;120935;1149;104388;-73
2021/01/20 01:27:27;;;;;;;35.00;15.50;;;;;;;-2.61;75.59;98452.36;119899;1151;104447;-71
2021/01/20 01:29:54;;;;;;;39.75;20.30;;;;;;;-2.59;75.36;98458.38;119949;1151;104439;-70
2021/01/20 01:32:21;;;;;;;38.35;18.95;;;;;;;-2.56;75.94;98452.21;119809;1151;104343;-72
2021/01/20 01:34:51;;;;;;;39.97;21.17;;;;;;;-2.56;75.76;98453.08;119882;1151;104420;-72
2021/01/20 01:37:19;;;;;;;38.87;18.87;;;;;;;-2.55;74.91;98443.50;119930;1151;104484;-70
2021/01/20 01:39:45;;;;;;;39.63;19.20;;;;;;;-2.52;76.14;98446.02;119841;1151;104391;-72
2021/01/20 01:42:12;;;;;;;39.67;18.27;;;;;;;-2.52;75.76;98443.41;119840;1151;104856;-72
2021/01/20 01:44:40;;;;;;;39.70;19.17;;;;;;;-2.51;75.02;98450.33;119776;1151;104447;-72
2021/01/20 01:47:08;;;;;;;37.60;18.53;;;;;;;-2.50;74.81;98438.18;119768;1151;104570;-74
2021/01/20 01:49:36;;;;;;;38.63;18.13;;;;;;;-2.51;75.00;98444.28;119816;1151;104369;-74
2021/01/20 01:52:03;;;;;;;38.35;19.02;;;;;;;-2.51;74.72;98454.70;119805;1151;104426;-71
2021/01/20 01:54:30;;;;;;;38.90;20.60;;;;;;;-2.51;74.89;98450.33;119850;1151;104381;-73
2021/01/20 01:57:00;;;;;;;36.93;17.93;;;;;;;-2.49;74.83;98460.72;119787;1151;104735;-73
2021/01/20 01:59:29;;;;;;;37.10;18.80;;;;;;;-2.48;75.73;98450.24;121193;1151;104448;-69
2021/01/20 02:01:56;;;;;;;37.43;18.83;;;;;;;-2.46;75.94;98456.26;119901;1151;104455;-69
2021/01/20 02:04:26;;;;;;;35.90;17.73;;;;;;;-2.46;74.79;98452.81;119873;1151;104368;-72
2021/01/20 02:06:57;;;;;;;37.83;19.43;;;;;;;-2.47;75.66;98459.77;119793;1151;104432;-72
2021/01/20 02:09:26;;;;;;;35.17;15.93;;;;;;;-2.48;75.69;98457.22;119661;1153;104364;-71
2021/01/20 02:12:06;;;;;;;36.40;17.90;;;;;;;-2.50;75.65;98453.80;120804;1151;104057;-70
2021/01/20 02:14:59;;;;;;;38.00;19.20;;;;;;;-2.51;75.16;98457.30;120451;1150;104444;-73
2021/01/20 02:17:45;;;;;;;38.33;20.30;;;;;;;-2.52;74.82;98456.44;119909;1151;104345;-72
2021/01/20 02:20:31;;;;;;;38.23;19.30;;;;;;;-2.53;75.96;98456.50;120025;1151;104447;-73
2021/01/20 02:23:09;;;;;;;38.03;18.37;;;;;;;-2.57;76.00;98448.77;120305;1151;104486;-72
2021/01/20 02:25:48;;;;;;;37.23;17.70;;;;;;;-2.58;75.80;98446.20;120250;1151;104465;-72
2021/01/20 02:28:24;;;;;;;33.77;16.53;;;;;;;-2.58;76.02;98448.80;119987;1153;104352;-70
2021/01/20 02:30:55;;;;;;;34.90;18.80;;;;;;;-2.58;75.49;98452.27;120762;1151;104521;-71
2021/01/20 02:33:25;;;;;;;38.80;19.87;;;;;;;-2.57;75.34;98460.92;120027;1151;104389;-73
2021/01/20 02:35:57;;;;;;;36.63;17.93;;;;;;;-2.55;76.13;98462.60;119869;1151;104470;-72
2021/01/20 02:38:26;;;;;;;34.30;16.90;;;;;;;-2.51;75.94;98459.91;119840;1151;104228;-72
2021/01/20 02:40:53;;;;;;;35.90;17.97;;;;;;;-2.49;75.97;98460.72;119873;1151;104451;-73
2021/01/20 02:43:24;;;;;;;33.67;15.83;;;;;;;-2.46;75.03;98473.66;119907;1148;104555;-70
2021/01/20 02:45:55;;;;;;;35.50;17.80;;;;;;;-2.46;75.18;98464.08;119887;1151;104451;-73
2021/01/20 02:48:22;;;;;;;36.23;18.30;;;;;;;-2.43;75.89;98469.20;119933;1151;104583;-72
2021/01/20 02:50:52;;;;;;;34.77;16.57;;;;;;;-2.40;76.12;98468.23;119899;1151;104378;-74
2021/01/20 02:53:23;;;;;;;32.63;15.23;;;;;;;-2.40;75.26;98463.03;120013;1151;104416;-72
2021/01/20 02:55:56;;;;;;;30.40;15.00;;;;;;;-2.37;75.07;98483.78;120740;1151;104420;-72
2021/01/20 02:58:31;;;;;;;34.23;16.57;;;;;;;-2.37;75.92;98469.91;119909;1151;104423;-71
2021/01/20 03:01:02;;;;;;;31.20;15.35;;;;;;;-2.36;75.78;98467.25;119940;1151;104463;-73
2021/01/20 03:03:31;;;;;;;33.17;17.27;;;;;;;-2.34;75.86;98475.04;120519;1151;104343;-73
2021/01/20 03:06:02;;;;;;;35.55;16.90;;;;;;;-2.34;76.08;98462.85;120033;1151;104349;-74
2021/01/20 03:08:31;;;;;;;35.90;17.63;;;;;;;-2.31;76.19;98467.13;120051;1151;104351;-71
2021/01/20 03:11:02;;;;;;;32.70;16.30;;;;;;;-2.31;75.51;98470.58;120025;1151;104489;-72
2021/01/20 03:13:31;;;;;;;33.00;16.57;;;;;;;-2.29;75.54;98470.55;120097;1151;105066;-71
2021/01/20 03:16:02;;;;;;;34.83;17.10;;;;;;;-2.28;76.16;98462.67;120593;1151;104435;-72
2021/01/20 03:18:30;;;;;;;33.00;16.47;;;;;;;-2.28;75.05;98467.05;119812;1151;104359;-71
2021/01/20 03:20:58;;;;;;;33.43;16.63;;;;;;;-2.29;75.35;98470.55;120082;1151;104375;-72
2021/01/20 03:23:25;;;;;;;33.77;16.93;;;;;;;-2.29;75.15;98483.58;120138;1151;104390;-71
2021/01/20 03:25:56;;;;;;;32.77;15.83;;;;;;;-2.29;75.88;98468.78;120757;1151;103395;-72
2021/01/20 03:28:24;;;;;;;34.27;18.03;;;;;;;-2.28;75.20;98469.65;119772;1151;104444;-71
2021/01/20 03:30:54;;;;;;;32.33;16.03;;;;;;;-2.25;75.93;98474.77;119848;1151;104853;-72
2021/01/20 03:33:21;;;;;;;34.43;17.80;;;;;;;-2.26;75.23;98475.67;119930;1151;104420;-72
2021/01/20 03:35:49;;;;;;;31.90;16.40;;;;;;;-2.25;74.87;98475.61;119832;1151;104391;-71
2021/01/20 03:38:16;;;;;;;34.67;17.67;;;;;;;-2.22;75.50;98479.86;119967;1151;104346;-73
2021/01/20 03:40:43;;;;;;;34.57;17.00;;;;;;;-2.19;75.23;98476.33;120272;1151;104447;-74
2021/01/20 03:43:10;;;;;;;31.52;16.15;;;;;;;-2.18;75.92;98472.82;119909;1151;104489;-73
2021/01/20 03:45:36;;;;;;;36.20;19.17;;;;;;;-2.17;75.93;98467.55;119992;1151;104380;-75
2021/01/20 03:48:04;;;;;;;33.53;17.13;;;;;;;-2.13;75.49;98476.14;119951;1151;104453;-73
2021/01/20 03:50:31;;;;;;;30.10;13.93;;;;;;;-2.12;75.22;98465.66;119996;1151;104375;-73
2021/01/20 03:53:03;;;;;;;37.13;19.43;;;;;;;-2.10;75.93;98468.23;120082;1151;104496;-74
2021/01/20 03:55:30;;;;;;;36.23;18.63;;;;;;;-2.11;76.04;98469.13;120074;1151;104450;-73
2021/01/20 03:57:57;;;;;;;38.17;19.20;;;;;;;-2.10;75.96;98471.67;120094;1151;104348;-73
2021/01/20 04:00:27;;;;;;;36.93;18.00;;;;;;;-2.07;76.06;98464.66;119907;1151;104512;-73
2021/01/20 04:02:57;;;;;;;36.30;18.10;;;;;;;-2.05;75.21;98466.34;119796;1151;105551;-72
2021/01/20 04:05:24;;;;;;;32.03;15.33;;;;;;;-2.01;75.82;98469.69;119878;1151;104454;-72
2021/01/20 04:07:52;;;;;;;36.40;17.83;;;;;;;-2.01;75.33;98461.87;119916;1151;104387;-72
2021/01/20 04:10:19;;;;;;;37.77;18.00;;;;;;;-1.98;75.11;98460.02;119914;1151;104841;-74
2021/01/20 04:12:46;;;;;;;35.90;18.57;;;;;;;-1.95;75.55;98469.51;119979;1151;104426;-72
2021/01/20 04:15:13;;;;;;;32.50;15.68;;;;;;;-1.94;74.84;98479.03;119819;1151;104356;-70
2021/01/20 04:17:40;;;;;;;37.13;19.50;;;;;;;-1.95;75.53;98467.73;119879;1151;104373;-73
2021/01/20 04:20:08;;;;;;;39.63;19.20;;;;;;;-1.96;76.08;98466.03;119957;1151;104452;-72
2021/01/20 04:22:37;;;;;;;39.83;21.17;;;;;;;-1.98;75.82;98469.60;119880;1153;104368;-73
2021/01/20 04:25:05;;;;;;;42.33;21.33;;;;;;;-1.95;75.24;98467.73;120060;1151;104353;-72
2021/01/20 04:27:32;;;;;;;36.47;18.67;;;;;;;-1.95;75.00;98470.34;120135;1151;104476;-75
2021/01/20 04:29:59;;;;;;;38.77;21.20;;;;;;;-1.99;75.76;98467.89;120121;1151;104438;-73
2021/01/20 04:32:26;;;;;;;36.30;18.10;;;;;;;-1.99;75.45;98473.94;120114;1153;104354;-72
2021/01/20 04:34:56;;;;;;;37.73;19.63;;;;;;;-2.01;74.87;98467.92;119984;1151;104445;-72
2021/01/20 04:37:23;;;;;;;34.70;17.83;;;;;;;-1.99;76.05;98476.55;120030;1151;104455;-72
2021/01/20 04:39:50;;;;;;;38.40;19.23;;;;;;;-1.99;75.40;98467.89;120642;1151;103579;-72
2021/01/20 04:42:17;;;;;;;37.95;19.87;;;;;;;-1.97;76.11;98469.53;120015;1150;104369;-72
2021/01/20 04:44:47;;;;;;;35.00;18.07;;;;;;;-1.97;75.87;98469.53;119919;1151;104378;-72
2021/01/20 04:47:17;;;;;;;40.30;20.67;;;;;;;-1.98;75.09;98472.20;119901;1150;104430;-72
2021/01/20 04:49:49;;;;;;;34.60;17.25;;;;;;;-1.98;74.88;98465.22;119823;1151;104484;-73
2021/01/20 04:52:19;;;;;;;36.10;19.10;;;;;;;-2.00;75.22;98461.81;119971;1151;104430;-70
2021/01/20 04:54:49;;;;;;;39.93;20.13;;;;;;;-1.99;76.01;98460.91;119945;1151;104397;-71
2021/01/20 04:57:18;;;;;;;42.00;22.67;;;;;;;-1.98;75.38;98465.22;119970;1153;104392;-72
2021/01/20 04:59:50;;;;;;;42.87;23.03;;;;;;;-1.97;75.18;98468.70;120497;1151;104502;-73
2021/01/20 05:02:20;;;;;;;35.97;19.63;;;;;;;-1.95;75.69;98478.16;120010;1151;104454;-72
2021/01/20 05:04:47;;;;;;;40.70;20.07;;;;;;;-1.97;75.42;98472.14;119985;1151;104438;-74
2021/01/20 05:07:14;;;;;;;44.10;22.80;;;;;;;-1.97;75.07;98477.36;119846;1150;104474;-73
2021/01/20 05:09:42;;;;;;;42.53;23.87;;;;;;;-1.92;75.70;98477.23;119864;1151;104564;-72
2021/01/20 05:12:09;;;;;;;44.20;21.60;;;;;;;-1.91;75.02;98478.07;119922;1151;104390;-73
2021/01/20 05:14:42;;;;;;;41.30;21.73;;;;;;;-1.92;75.93;98477.23;120025;1151;104419;-73
2021/01/20 05:17:10;;;;;;;40.90;21.63;;;;;;;-1.91;76.02;98475.46;119785;1151;104509;-74
2021/01/20 05:19:40;;;;;;;38.13;19.57;;;;;;;-1.89;76.11;98476.27;119933;1151;104358;-72
2021/01/20 05:22:11;;;;;;;35.73;18.63;;;;;;;-1.89;75.32;98482.35;119870;1151;104503;-69
2021/01/20 05:24:40;;;;;;;41.47;22.33;;;;;;;-1.87;75.35;98483.16;120116;1151;105078;-70
2021/01/20 05:27:09;;;;;;;39.37;19.73;;;;;;;-1.84;75.27;98482.20;120659;1151;104513;-71
2021/01/20 05:29:36;;;;;;;39.07;19.23;;;;;;;-1.85;75.77;98485.70;119814;1151;104420;-72
2021/01/20 05:32:18;;;;;;;43.73;21.67;;;;;;;-1.86;75.97;98489.21;119836;1151;104538;-71
2021/01/20 05:35:09;;;;;;;36.93;19.00;;;;;;;-1.87;75.09;98504.02;119971;1151;104454;-71
2021/01/20 05:37:46;;;;;;;40.50;21.93;;;;;;;-1.85;75.16;98490.91;120000;1153;104718;-71
2021/01/20 05:40:19;;;;;;;40.60;20.80;;;;;;;-1.82;75.30;98488.22;119783;1154;104473;-71
2021/01/20 05:42:51;;;;;;;44.37;23.50;;;;;;;-1.82;75.89;98488.22;120249;1151;104352;-69
2021/01/20 05:45:22;;;;;;;44.40;22.62;;;;;;;-1.82;75.65;98489.05;119874;1153;104462;-72
2021/01/20 05:48:09;;;;;;;39.80;20.90;;;;;;;-1.81;76.09;98498.58;119820;1151;104450;-71
2021/01/20 05:50:55;;;;;;;44.90;23.07;;;;;;;-1.80;74.94;98496.84;120026;1151;104638;-74
2021/01/20 05:53:24;;;;;;;50.50;25.57;;;;;;;-1.83;75.26;98495.17;120001;1151;104439;-72
2021/01/20 05:56:04;;;;;;;42.50;21.63;;;;;;;-1.82;76.08;98507.30;120451;1153;104580;-71
2021/01/20 05:58:39;;;;;;;40.77;21.47;;;;;;;-1.83;76.36;98500.38;119821;1149;104388;-72
2021/01/20 06:01:11;;;;;;;46.47;25.27;;;;;;;-1.82;74.98;98504.70;119736;1151;104637;-70
2021/01/20 06:03:39;;;;;;;46.30;23.97;;;;;;;-1.81;76.13;98503.80;119833;1151;104453;-71
2021/01/20 06:06:07;;;;;;;45.80;24.10;;;;;;;-1.78;75.07;98509.81;119781;1151;104419;-72
2021/01/20 06:08:37;;;;;;;43.93;22.50;;;;;;;-1.78;76.23;98513.30;121108;1151;104377;-71
2021/01/20 06:11:08;;;;;;;46.17;23.80;;;;;;;-1.80;75.77;98509.88;120054;1151;104364;-73
2021/01/20 06:13:36;;;;;;;46.90;25.17;;;;;;;-1.81;75.03;98516.83;120088;1151;104348;-71
2021/01/20 06:16:31;;;;;;;42.40;23.63;;;;;;;-1.80;75.29;98513.33;119987;1151;104567;-69
2021/01/20 06:19:09;;;;;;;46.23;24.73;;;;;;;-1.77;75.27;98511.52;120133;1151;104393;-70
2021/01/20 06:21:40;;;;;;;41.83;22.73;;;;;;;-1.78;76.00;98515.91;120139;1151;104357;-68
2021/01/20 06:24:25;;;;;;;42.27;21.87;;;;;;;-1.78;75.44;98509.81;120073;1151;104481;-70
2021/01/20 06:27:04;;;;;;;48.83;25.77;;;;;;;-1.82;75.35;98512.52;120066;1154;104358;-72
2021/01/20 06:29:37;;;;;;;47.40;24.33;;;;;;;-1.81;75.23;98511.62;120037;1151;104451;-70
2021/01/20 06:32:08;;;;;;;49.10;25.73;;;;;;;-1.81;76.17;98521.20;119951;1151;104490;-73
2021/01/20 06:34:36;;;;;;;48.60;25.30;;;;;;;-1.81;75.50;98522.05;120052;1151;104965;-72
2021/01/20 06:37:03;;;;;;;46.13;23.20;;;;;;;-1.77;76.07;98522.83;120009;1151;104522;-71
2021/01/20 06:39:35;;;;;;;42.93;22.77;;;;;;;-1.75;75.21;98518.41;120054;1151;104413;-72
2021/01/20 06:42:23;;;;;;;47.47;24.43;;;;;;;-1.72;76.06;98517.45;120041;1151;104351;-71
2021/01/20 06:45:15;;;;;;;47.27;23.40;;;;;;;-1.72;76.45;98512.23;120007;1151;104426;-68
2021/01/20 06:48:00;;;;;;;41.50;21.73;;;;;;;-1.71;76.20;98519.16;120040;1151;104446;-74
2021/01/20 06:51:05;;;;;;;45.97;22.60;;;;;;;-1.71;75.98;98519.16;120059;1151;104461;-72
2021/01/20 06:54:12;;;;;;;49.33;26.33;;;;;;;-1.71;75.23;98516.55;120060;1151;104420;-75
2021/01/20 06:56:52;;;;;;;49.17;25.13;;;;;;;-1.70;76.36;98513.91;120042;1151;104876;-73
2021/01/20 06:59:27;;;;;;;46.70;24.55;;;;;;;-1.68;76.41;98519.06;119970;1151;104420;-71
2021/01/20 07:02:04;;;;;;;48.33;23.77;;;;;;;-1.65;75.40;98525.05;120024;1151;104466;-72
2021/01/20 07:04:37;;;;;;;48.90;26.33;;;;;;;-1.63;76.33;98529.37;120038;1151;104466;-71
2021/01/20 07:07:12;;;;;;;48.80;24.23;;;;;;;-1.62;75.89;98521.48;120042;1151;104457;-73
2021/01/20 07:09:51;;;;;;;48.17;25.47;;;;;;;-1.58;76.38;98527.44;120073;1151;104413;-69
2021/01/20 07:12:24;;;;;;;48.47;23.77;;;;;;;-1.54;76.38;98535.14;120092;1151;104452;-70
2021/01/20 07:14:55;;;;;;;51.45;24.95;;;;;;;-1.50;75.29;98539.36;120009;1151;105088;-71
2021/01/20 07:17:23;;;;;;;46.80;23.13;;;;;;;-1.47;75.32;98529.73;119970;1151;104380;-71
2021/01/20 07:19:55;;;;;;;46.70;24.63;;;;;;;-1.46;76.38;98532.27;120084;1151;104391;-72
2021/01/20 07:22:22;;;;;;;47.13;24.33;;;;;;;-1.44;76.43;98534.85;120028;1151;104436;-69
2021/01/20 07:24:51;;;;;;;46.63;24.57;;;;;;;-1.42;75.85;98531.28;119991;1151;104355;-72
2021/01/20 07:27:18;;;;;;;44.03;22.10;;;;;;;-1.38;75.52;98532.88;120039;1151;104351;-72
2021/01/20 07:29:47;;;;;;;41.90;20.60;;;;;;;-1.35;75.41;98537.13;120076;1151;104431;-73
2021/01/20 07:32:14;;;;;;;46.02;23.92;;;;;;;-1.32;75.43;98536.20;120082;1151;104462;-72
2021/01/20 07:34:46;;;;;;;46.15;22.90;;;;;;;-1.28;76.35;98543.86;120031;1151;104493;-71
2021/01/20 07:37:17;;;;;;;43.83;23.97;;;;;;;-1.25;75.83;98543.77;120045;1151;104493;-70
2021/01/20 07:39:48;;;;;;;40.77;19.37;;;;;;;-1.20;76.11;98546.21;120060;1151;104353;-72
2021/01/20 07:42:14;;;;;;;44.23;21.60;;;;;;;-1.18;75.47;98541.80;120109;1148;104452;-70
2021/01/20 07:44:51;;;;;;;35.57;16.40;;;;;;;-1.13;75.69;98542.50;120022;1151;104911;-70
2021/01/20 07:47:18;;;;;;;43.37;21.77;;;;;;;-1.10;75.81;98541.56;119961;1151;104522;-71
2021/01/20 07:49:56;;;;;;;44.00;23.50;;;;;;;-1.06;76.07;98557.05;119964;1151;104410;-71
2021/01/20 07:52:23;;;;;;;43.23;23.03;;;;;;;-1.01;75.55;98553.44;120036;1151;104367;-72
2021/01/20 07:54:51;;;;;;;45.30;23.07;;;;;;;-0.97;76.13;98561.11;120010;1150;104417;-71
2021/01/20 07:57:23;;;;;;;39.80;20.03;;;;;;;-0.99;76.21;98562.08;119981;1151;104396;-72
2021/01/20 08:00:05;;;;;;;42.63;23.63;;;;;;;-1.00;76.39;98557.76;119982;1151;104442;-72
2021/01/20 08:02:32;;;;;;;45.93;22.97;;;;;;;-0.96;75.29;98564.59;120018;1151;104432;-74
2021/01/20 08:05:05;;;;;;;45.70;25.37;;;;;;;-0.93;75.89;98564.48;120044;1151;104419;-72
2021/01/20 08:07:32;;;;;;;48.27;24.50;;;;;;;-0.93;75.64;98567.93;119957;1151;104990;-74
2021/01/20 08:10:02;;;;;;;45.77;23.80;;;;;;;-0.91;75.58;98568.73;120099;1151;104523;-72
2021/01/20 08:12:34;;;;;;;43.13;21.17;;;;;;;-0.90;76.14;98570.44;120034;1151;104527;-72
2021/01/20 08:15:03;;;;;;;44.00;23.10;;;;;;;-0.93;75.99;98570.55;120039;1151;104461;-71
2021/01/20 08:17:30;;;;;;;47.47;23.17;;;;;;;-0.93;76.36;98574.93;119963;1151;104354;-73
2021/01/20 08:19:59;;;;;;;41.67;21.20;;;;;;;-0.91;75.67;98570.51;120018;1151;104483;-71
2021/01/20 08:22:26;;;;;;;42.97;22.20;;;;;;;-0.91;75.41;98579.18;120014;1151;104391;-72
2021/01/20 08:24:54;;;;;;;45.08;23.80;;;;;;;-0.89;76.02;98571.31;120026;1151;102467;-72
2021/01/20 08:27:26;;;;;;;44.83;22.87;;;;;;;-0.87;75.97;98579.95;120037;1151;104461;-72
2021/01/20 08:29:57;;;;;;;48.03;26.23;;;;;;;-0.84;75.58;98576.36;120041;1151;104375;-72
2021/01/20 08:32:27;;;;;;;49.27;24.83;;;;;;;-0.80;75.53;98567.52;119952;1151;104573;-72
2021/01/20 08:34:55;;;;;;;43.97;23.13;;;;;;;-0.79;75.64;98575.29;120015;1148;104457;-73
2021/01/20 08:37:36;;;;;;;50.70;25.20;;;;;;;-0.75;75.93;98571.67;119994;1151;104651;-73
2021/01/20 08:40:06;;;;;;;42.00;22.20;;;;;;;-0.74;76.20;98585.59;120017;1150;104355;-72
2021/01/20 08:42:36;;;;;;;41.37;21.43;;;;;;;-0.73;75.58;98582.08;120057;1151;104413;-73
2021/01/20 08:45:11;;;;;;;44.10;22.47;;;;;;;-0.71;76.00;98579.41;119938;1151;104349;-73
2021/01/20 08:47:59;;;;;;;45.17;23.00;;;;;;;-0.69;75.85;98569.76;120107;1150;104381;-72
2021/01/20 08:50:26;;;;;;;47.40;24.35;;;;;;;-0.67;75.92;98584.48;120014;1151;104537;-71
2021/01/20 08:52:58;;;;;;;45.65;25.45;;;;;;;-0.64;76.18;98592.22;120044;1151;104380;-75
2021/01/20 08:55:29;;;;;;;41.87;20.07;;;;;;;-0.57;75.95;98595.46;120019;1151;104459;-73
2021/01/20 08:58:30;;;;;;;41.30;19.90;;;;;;;-0.55;76.15;98598.01;120177;1151;104554;-73
2021/01/20 09:01:09;;;;;;;41.60;21.93;;;;;;;-0.51;76.32;98589.16;119994;1151;104370;-72
2021/01/20 09:03:39;;;;;;;46.17;24.37;;;;;;;-0.47;75.97;98594.24;120015;1149;104661;-72
2021/01/20 09:06:15;;;;;;;42.97;22.23;;;;;;;-0.44;75.83;98595.88;119938;1151;104492;-71
2021/01/20 09:08:43;;;;;;;42.70;23.50;;;;;;;-0.42;75.92;98588.00;119983;1151;104827;-71
2021/01/20 09:11:12;;;;;;;43.47;23.40;;;;;;;-0.39;76.19;98595.70;120057;1151;104358;-72
2021/01/20 09:13:44;;;;;;;44.43;22.90;;;;;;;-0.37;75.66;98597.38;119990;1153;104471;-72
2021/01/20 09:16:13;;;;;;;45.73;23.63;;;;;;;-0.38;76.47;98600.89;120059;1151;104477;-72
2021/01/20 09:18:40;;;;;;;44.20;23.33;;;;;;;-0.36;76.55;98609.53;120010;1151;104361;-71
2021/01/20 09:21:10;;;;;;;42.90;22.15;;;;;;;-0.32;75.88;98603.30;120056;1151;104356;-73
2021/01/20 09:23:36;;;;;;;37.03;17.85;;;;;;;-0.26;75.77;98611.83;119991;1151;104362;-72
2021/01/20 09:26:03;;;;;;;43.97;23.43;;;;;;;-0.26;75.96;98607.44;120019;1149;104464;-71
2021/01/20 09:28:30;;;;;;;39.25;20.85;;;;;;;-0.23;76.03;98603.88;120023;1151;104637;-70
2021/01/20 09:30:57;;;;;;;41.20;21.20;;;;;;;-0.23;76.12;98589.03;120002;1151;104455;-71
2021/01/20 09:33:26;;;;;;;42.53;20.70;;;;;;;-0.22;75.99;98598.58;119964;1151;104374;-71
2021/01/20 09:35:55;;;;;;;38.90;19.83;;;;;;;-0.24;76.46;98587.33;120072;1151;104346;-70
2021/01/20 09:38:29;;;;;;;44.17;23.70;;;;;;;-0.24;76.45;98583.87;120074;1151;104446;-71
2021/01/20 09:40:56;;;;;;;42.20;21.47;;;;;;;-0.16;75.72;98590.52;120001;1151;104534;-72
2021/01/20 09:43:26;;;;;;;40.23;20.77;;;;;;;-0.11;76.14;98589.50;119963;1150;104352;-73
2021/01/20 09:45:54;;;;;;;37.10;18.35;;;;;;;-0.08;76.05;98582.38;119975;1151;104391;-72
2021/01/20 09:48:22;;;;;;;38.80;20.80;;;;;;;-0.06;75.73;98592.80;119972;1151;104351;-72
2021/01/20 09:50:52;;;;;;;38.83;20.87;;;;;;;-0.04;76.00;98585.75;120028;1150;104383;-74
2021/01/20 09:53:19;;;;;;;37.07;20.27;;;;;;;-0.03;75.87;98592.69;119971;1151;104543;-72
2021/01/20 09:55:49;;;;;;;38.30;21.00;;;;;;;-0.02;75.86;98571.70;119951;1149;104429;-72
2021/01/20 09:58:17;;;;;;;34.70;17.67;;;;;;;0.03;75.95;98583.75;119877;1151;104353;-72
2021/01/20 10:00:44;;;;;;;37.28;18.45;;;;;;;0.06;76.18;98576.63;119726;1151;104426;-72
2021/01/20 10:03:11;;;;;;;38.60;20.97;;;;;;;0.13;76.06;98577.27;119942;1151;104395;-71
2021/01/20 10:05:41;;;;;;;36.27;19.40;;;;;;;0.20;75.99;98575.27;119960;1151;104882;-70
2021/01/20 10:08:09;;;;;;;36.97;19.13;;;;;;;0.25;76.11;98576.78;119923;1150;104357;-72
2021/01/20 10:10:36;;;;;;;36.88;18.20;;;;;;;0.31;76.20;98587.92;119970;1151;104358;-71
2021/01/20 10:13:04;;;;;;;41.33;20.10;;;;;;;0.33;75.92;98565.17;119989;1151;104447;-71
2021/01/20 10:15:31;;;;;;;38.23;19.50;;;;;;;0.38;76.02;98565.84;120088;1151;104879;-71
2021/01/20 10:17:59;;;;;;;38.67;18.83;;;;;;;0.45;76.02;98567.31;119987;1150;104396;-72
2021/01/20 10:20:29;;;;;;;34.80;18.60;;;;;;;0.49;76.02;98568.03;119954;1151;104359;-72
2021/01/20 10:22:56;;;;;;;39.55;19.87;;;;;;;0.51;75.74;98569.70;119995;1151;104456;-71
2021/01/20 10:25:29;;;;;;;40.40;21.37;;;;;;;0.56;76.15;98578.22;119967;1151;104532;-72
2021/01/20 10:28:00;;;;;;;38.27;20.40;;;;;;;0.59;75.80;98565.02;119986;1150;104419;-72
2021/01/20 10:30:30;;;;;;;37.00;19.95;;;;;;;0.68;75.92;98560.30;120015;1151;104429;-72
2021/01/20 10:33:00;;;;;;;36.83;18.77;;;;;;;0.79;75.91;98552.87;119948;1151;104452;-71
2021/01/20 10:35:30;;;;;;;39.37;20.30;;;;;;;0.88;76.18;98559.48;119982;1151;104384;-72
2021/01/20 10:37:57;;;;;;;38.13;20.00;;;;;;;0.91;75.62;98550.67;119961;1151;104443;-73
2021/01/20 10:40:26;;;;;;;37.30;20.40;;;;;;;0.92;75.80;98558.45;120021;1151;104796;-72
2021/01/20 10:42:53;;;;;;;37.20;19.70;;;;;;;0.92;76.05;98542.73;119975;1151;104531;-74
2021/01/20 10:45:20;;;;;;;41.33;20.20;;;;;;;0.93;76.01;98560.15;119977;1151;104385;-71
2021/01/20 10:47:47;;;;;;;39.20;21.10;;;;;;;0.94;76.07;98563.63;119944;1151;104438;-72
2021/01/20 10:50:14;;;;;;;39.40;21.25;;;;;;;0.95;75.80;98555.70;119980;1151;104396;-72
2021/01/20 10:52:41;;;;;;;40.27;19.43;;;;;;;0.99;76.20;98557.28;120015;1151;104923;-70
2021/01/20 10:55:08;;;;;;;38.42;19.70;;;;;;;1.01;76.22;98559.85;120000;1151;104524;-72
2021/01/20 10:57:35;;;;;;;36.50;17.93;;;;;;;1.04;76.20;98544.84;119974;1151;104398;-72
2021/01/20 11:00:07;;;;;;;36.77;19.05;;;;;;;1.07;75.96;98545.63;119983;1150;104454;-72
2021/01/20 11:02:33;;;;;;;38.63;19.60;;;;;;;1.08;75.77;98547.34;119972;1151;104375;-72
2021/01/20 11:05:02;;;;;;;40.45;19.70;;;;;;;1.13;76.05;98543.59;119898;1150;104426;-73
2021/01/20 11:07:37;;;;;;;36.67;19.77;;;;;;;1.15;76.05;98547.00;120245;1147;104438;-71
2021/01/20 11:10:05;;;;;;;35.83;17.50;;;;;;;1.18;76.00;98546.04;120181;1150;104796;-71
2021/01/20 11:12:33;;;;;;;37.17;19.17;;;;;;;1.19;76.15;98532.86;120143;1149;104576;-73
2021/01/20 11:15:00;;;;;;;37.90;18.70;;;;;;;1.22;75.95;98541.50;120126;1149;104380;-72
2021/01/20 11:17:27;;;;;;;37.30;18.40;;;;;;;1.21;76.26;98552.91;120113;1149;104432;-72